sensor_id;sensor_type;location;lat;lon;timestamp;temperature;humidity
71047;SHT31;58703;48.978;8.982;2023-03-14T00:00:11;10.00;94.79
71047;SHT31;58703;48.978;8.982;2023-03-14T00:02:38;10.16;93.75
71047;SHT31;58703;48.978;8.982;2023-03-14T00:05:04;10.11;94.56
71047;SHT31;58703;48.978;8.982;2023-03-14T00:07:36;10.00;95.04
71047;SHT31;58703;48.978;8.982;2023-03-14T00:10:08;10.01;95.22
71047;SHT31;58703;48.978;8.982;2023-03-14T00:12:34;9.93;95.75
71047;SHT31;58703;48.978;8.982;2023-03-14T00:15:01;9.75;96.88
71047;SHT31;58703;48.978;8.982;2023-03-14T00:17:34;9.72;96.83
71047;SHT31;58703;48.978;8.982;2023-03-14T00:20:00;9.90;95.87
71047;SHT31;58703;48.978;8.982;2023-03-14T00:22:40;9.82;96.38
71047;SHT31;58703;48.978;8.982;2023-03-14T00:25:09;9.85;96.02
71047;SHT31;58703;48.978;8.982;2023-03-14T00:27:37;9.97;95.40
71047;SHT31;58703;48.978;8.982;2023-03-14T00:30:04;9.90;95.55
71047;SHT31;58703;48.978;8.982;2023-03-14T00:32:30;9.80;96.17
71047;SHT31;58703;48.978;8.982;2023-03-14T00:34:56;9.93;95.54
71047;SHT31;58703;48.978;8.982;2023-03-14T00:37:22;9.85;95.90
71047;SHT31;58703;48.978;8.982;2023-03-14T00:39:48;9.83;96.22
71047;SHT31;58703;48.978;8.982;2023-03-14T00:42:14;9.70;96.83
71047;SHT31;58703;48.978;8.982;2023-03-14T00:44:39;9.66;96.68
71047;SHT31;58703;48.978;8.982;2023-03-14T00:47:06;9.56;97.66
71047;SHT31;58703;48.978;8.982;2023-03-14T00:49:32;9.53;97.97
71047;SHT31;58703;48.978;8.982;2023-03-14T00:51:58;9.50;97.77
71047;SHT31;58703;48.978;8.982;2023-03-14T00:54:24;9.48;98.11
71047;SHT31;58703;48.978;8.982;2023-03-14T00:56:50;9.39;98.23
71047;SHT31;58703;48.978;8.982;2023-03-14T00:59:16;9.43;98.42
71047;SHT31;58703;48.978;8.982;2023-03-14T01:01:43;9.43;98.41
71047;SHT31;58703;48.978;8.982;2023-03-14T01:04:10;9.60;97.58
71047;SHT31;58703;48.978;8.982;2023-03-14T01:06:37;9.59;97.54
71047;SHT31;58703;48.978;8.982;2023-03-14T01:09:05;9.67;97.30
71047;SHT31;58703;48.978;8.982;2023-03-14T01:11:33;9.70;97.30
71047;SHT31;58703;48.978;8.982;2023-03-14T01:13:59;9.73;97.24
71047;SHT31;58703;48.978;8.982;2023-03-14T01:16:29;9.73;97.26
71047;SHT31;58703;48.978;8.982;2023-03-14T01:18:56;9.75;97.32
71047;SHT31;58703;48.978;8.982;2023-03-14T01:21:25;9.65;97.86
71047;SHT31;58703;48.978;8.982;2023-03-14T01:23:52;9.69;97.85
71047;SHT31;58703;48.978;8.982;2023-03-14T01:26:20;9.72;97.68
71047;SHT31;58703;48.978;8.982;2023-03-14T01:28:50;9.76;97.68
71047;SHT31;58703;48.978;8.982;2023-03-14T01:31:17;9.65;98.01
71047;SHT31;58703;48.978;8.982;2023-03-14T01:33:44;9.67;97.86
71047;SHT31;58703;48.978;8.982;2023-03-14T01:36:10;9.59;98.19
71047;SHT31;58703;48.978;8.982;2023-03-14T01:38:38;9.62;97.89
71047;SHT31;58703;48.978;8.982;2023-03-14T01:41:07;9.56;98.15
71047;SHT31;58703;48.978;8.982;2023-03-14T01:43:33;9.58;98.02
71047;SHT31;58703;48.978;8.982;2023-03-14T01:48:58;9.34;98.68
71047;SHT31;58703;48.978;8.982;2023-03-14T01:51:47;9.49;97.90
71047;SHT31;58703;48.978;8.982;2023-03-14T01:54:26;9.56;97.00
71047;SHT31;58703;48.978;8.982;2023-03-14T01:56:59;9.55;96.77
71047;SHT31;58703;48.978;8.982;2023-03-14T01:59:30;9.63;96.38
71047;SHT31;58703;48.978;8.982;2023-03-14T02:01:57;9.65;96.10
71047;SHT31;58703;48.978;8.982;2023-03-14T02:04:28;9.63;95.98
71047;SHT31;58703;48.978;8.982;2023-03-14T02:07:00;9.58;95.99
71047;SHT31;58703;48.978;8.982;2023-03-14T02:09:27;9.66;95.73
71047;SHT31;58703;48.978;8.982;2023-03-14T02:11:52;9.76;94.96
71047;SHT31;58703;48.978;8.982;2023-03-14T02:14:29;9.76;94.98
71047;SHT31;58703;48.978;8.982;2023-03-14T02:16:57;9.69;95.07
71047;SHT31;58703;48.978;8.982;2023-03-14T02:22:23;9.80;94.31
71047;SHT31;58703;48.978;8.982;2023-03-14T02:25:09;9.85;94.21
71047;SHT31;58703;48.978;8.982;2023-03-14T02:27:38;9.72;94.60
71047;SHT31;58703;48.978;8.982;2023-03-14T02:30:05;9.70;94.80
71047;SHT31;58703;48.978;8.982;2023-03-14T02:32:33;9.56;95.63
71047;SHT31;58703;48.978;8.982;2023-03-14T02:35:04;9.45;95.78
71047;SHT31;58703;48.978;8.982;2023-03-14T02:37:40;9.36;96.38
71047;SHT31;58703;48.978;8.982;2023-03-14T02:40:08;9.36;96.29
71047;SHT31;58703;48.978;8.982;2023-03-14T02:42:34;9.32;96.09
71047;SHT31;58703;48.978;8.982;2023-03-14T02:47:54;9.19;96.10
71047;SHT31;58703;48.978;8.982;2023-03-14T02:50:24;9.29;95.63
71047;SHT31;58703;48.978;8.982;2023-03-14T02:52:52;9.35;95.25
71047;SHT31;58703;48.978;8.982;2023-03-14T02:55:23;9.53;93.86
71047;SHT31;58703;48.978;8.982;2023-03-14T02:57:50;9.66;92.76
71047;SHT31;58703;48.978;8.982;2023-03-14T03:00:16;9.66;92.46
71047;SHT31;58703;48.978;8.982;2023-03-14T03:02:42;9.76;91.46
71047;SHT31;58703;48.978;8.982;2023-03-14T03:05:07;9.89;90.05
71047;SHT31;58703;48.978;8.982;2023-03-14T03:07:33;9.89;89.76
71047;SHT31;58703;48.978;8.982;2023-03-14T03:09:59;9.87;89.88
71047;SHT31;58703;48.978;8.982;2023-03-14T03:12:24;9.82;89.46
71047;SHT31;58703;48.978;8.982;2023-03-14T03:14:51;9.82;89.57
71047;SHT31;58703;48.978;8.982;2023-03-14T03:17:17;9.89;89.10
71047;SHT31;58703;48.978;8.982;2023-03-14T03:19:43;9.87;89.15
71047;SHT31;58703;48.978;8.982;2023-03-14T03:22:09;9.86;89.08
71047;SHT31;58703;48.978;8.982;2023-03-14T03:24:34;9.73;89.68
71047;SHT31;58703;48.978;8.982;2023-03-14T03:27:00;9.55;90.14
71047;SHT31;58703;48.978;8.982;2023-03-14T03:29:26;9.56;89.76
71047;SHT31;58703;48.978;8.982;2023-03-14T03:31:51;9.65;89.51
71047;SHT31;58703;48.978;8.982;2023-03-14T03:34:19;9.70;88.93
71047;SHT31;58703;48.978;8.982;2023-03-14T03:36:45;9.70;88.92
71047;SHT31;58703;48.978;8.982;2023-03-14T03:39:10;9.67;88.83
71047;SHT31;58703;48.978;8.982;2023-03-14T03:41:37;9.55;89.36
71047;SHT31;58703;48.978;8.982;2023-03-14T03:44:02;9.58;88.65
71047;SHT31;58703;48.978;8.982;2023-03-14T03:46:28;9.53;89.11
71047;SHT31;58703;48.978;8.982;2023-03-14T03:48:58;9.50;88.63
71047;SHT31;58703;48.978;8.982;2023-03-14T03:51:25;9.55;88.57
71047;SHT31;58703;48.978;8.982;2023-03-14T03:53:51;9.39;88.64
71047;SHT31;58703;48.978;8.982;2023-03-14T03:56:17;9.38;88.58
71047;SHT31;58703;48.978;8.982;2023-03-14T03:58:42;9.32;88.80
71047;SHT31;58703;48.978;8.982;2023-03-14T04:01:10;9.18;89.73
71047;SHT31;58703;48.978;8.982;2023-03-14T04:03:37;9.24;88.81
71047;SHT31;58703;48.978;8.982;2023-03-14T04:06:12;9.16;88.94
71047;SHT31;58703;48.978;8.982;2023-03-14T04:08:38;9.03;89.54
71047;SHT31;58703;48.978;8.982;2023-03-14T04:11:04;9.01;89.29
71047;SHT31;58703;48.978;8.982;2023-03-14T04:13:32;8.91;89.64
71047;SHT31;58703;48.978;8.982;2023-03-14T04:15:57;8.87;89.50
71047;SHT31;58703;48.978;8.982;2023-03-14T04:18:24;8.88;89.70
71047;SHT31;58703;48.978;8.982;2023-03-14T04:20:53;8.95;88.85
71047;SHT31;58703;48.978;8.982;2023-03-14T04:23:21;9.12;87.94
71047;SHT31;58703;48.978;8.982;2023-03-14T04:25:51;9.26;86.86
71047;SHT31;58703;48.978;8.982;2023-03-14T04:28:17;9.08;87.64
71047;SHT31;58703;48.978;8.982;2023-03-14T04:30:43;9.14;87.57
71047;SHT31;58703;48.978;8.982;2023-03-14T04:33:11;9.07;87.97
71047;SHT31;58703;48.978;8.982;2023-03-14T04:35:38;9.14;87.41
71047;SHT31;58703;48.978;8.982;2023-03-14T04:38:08;9.15;86.68
71047;SHT31;58703;48.978;8.982;2023-03-14T04:40:33;9.19;86.61
71047;SHT31;58703;48.978;8.982;2023-03-14T04:42:59;9.08;87.04
71047;SHT31;58703;48.978;8.982;2023-03-14T04:45:24;9.15;86.14
71047;SHT31;58703;48.978;8.982;2023-03-14T04:47:49;9.10;86.46
71047;SHT31;58703;48.978;8.982;2023-03-14T04:50:15;9.19;85.75
71047;SHT31;58703;48.978;8.982;2023-03-14T04:52:43;9.19;85.44
71047;SHT31;58703;48.978;8.982;2023-03-14T04:55:08;9.07;85.98
71047;SHT31;58703;48.978;8.982;2023-03-14T04:57:34;8.88;87.32
71047;SHT31;58703;48.978;8.982;2023-03-14T05:00:00;8.92;86.46
71047;SHT31;58703;48.978;8.982;2023-03-14T05:02:26;8.91;86.29
71047;SHT31;58703;48.978;8.982;2023-03-14T05:04:52;8.81;87.12
71047;SHT31;58703;48.978;8.982;2023-03-14T05:07:17;8.80;86.87
71047;SHT31;58703;48.978;8.982;2023-03-14T05:09:43;8.56;88.50
71047;SHT31;58703;48.978;8.982;2023-03-14T05:12:09;8.60;87.22
71047;SHT31;58703;48.978;8.982;2023-03-14T05:14:34;8.64;87.60
71047;SHT31;58703;48.978;8.982;2023-03-14T05:17:00;8.68;87.25
71047;SHT31;58703;48.978;8.982;2023-03-14T05:19:26;8.70;87.28
71047;SHT31;58703;48.978;8.982;2023-03-14T05:21:52;8.81;86.57
71047;SHT31;58703;48.978;8.982;2023-03-14T05:24:18;8.75;86.85
71047;SHT31;58703;48.978;8.982;2023-03-14T05:26:43;8.75;87.16
71047;SHT31;58703;48.978;8.982;2023-03-14T05:29:09;8.84;86.70
71047;SHT31;58703;48.978;8.982;2023-03-14T05:31:35;8.95;86.35
71047;SHT31;58703;48.978;8.982;2023-03-14T05:34:00;9.03;85.87
71047;SHT31;58703;48.978;8.982;2023-03-14T05:36:26;9.05;86.36
71047;SHT31;58703;48.978;8.982;2023-03-14T05:38:51;9.34;84.59
71047;SHT31;58703;48.978;8.982;2023-03-14T05:41:17;9.43;84.26
71047;SHT31;58703;48.978;8.982;2023-03-14T05:43:43;9.31;85.09
71047;SHT31;58703;48.978;8.982;2023-03-14T05:46:15;9.36;85.34
71047;SHT31;58703;48.978;8.982;2023-03-14T05:48:42;9.32;85.04
71047;SHT31;58703;48.978;8.982;2023-03-14T05:51:08;9.32;85.52
71047;SHT31;58703;48.978;8.982;2023-03-14T05:53:34;9.29;86.15
71047;SHT31;58703;48.978;8.982;2023-03-14T05:56:00;9.16;86.52
71047;SHT31;58703;48.978;8.982;2023-03-14T05:58:27;9.12;86.37
71047;SHT31;58703;48.978;8.982;2023-03-14T06:00:52;9.22;86.25
71047;SHT31;58703;48.978;8.982;2023-03-14T06:03:18;9.16;86.91
71047;SHT31;58703;48.978;8.982;2023-03-14T06:05:43;9.11;87.59
71047;SHT31;58703;48.978;8.982;2023-03-14T06:08:10;8.74;90.17
71047;SHT31;58703;48.978;8.982;2023-03-14T06:10:37;8.83;88.93
71047;SHT31;58703;48.978;8.982;2023-03-14T06:13:03;8.83;89.62
71047;SHT31;58703;48.978;8.982;2023-03-14T06:15:28;8.70;89.67
71047;SHT31;58703;48.978;8.982;2023-03-14T06:17:55;8.52;90.73
71047;SHT31;58703;48.978;8.982;2023-03-14T06:20:21;8.42;91.45
71047;SHT31;58703;48.978;8.982;2023-03-14T06:22:48;8.26;92.48
71047;SHT31;58703;48.978;8.982;2023-03-14T06:25:15;8.26;91.76
71047;SHT31;58703;48.978;8.982;2023-03-14T06:27:42;8.36;92.17
71047;SHT31;58703;48.978;8.982;2023-03-14T06:30:09;8.70;90.90
71047;SHT31;58703;48.978;8.982;2023-03-14T06:32:35;9.08;87.40
71047;SHT31;58703;48.978;8.982;2023-03-14T06:35:01;9.25;89.19
71047;SHT31;58703;48.978;8.982;2023-03-14T06:37:28;9.19;87.40
71047;SHT31;58703;48.978;8.982;2023-03-14T06:39:54;9.26;87.66
71047;SHT31;58703;48.978;8.982;2023-03-14T06:42:19;9.14;88.41
71047;SHT31;58703;48.978;8.982;2023-03-14T06:44:45;9.14;88.67
71047;SHT31;58703;48.978;8.982;2023-03-14T06:47:12;8.95;89.66
71047;SHT31;58703;48.978;8.982;2023-03-14T06:49:39;8.97;89.39
71047;SHT31;58703;48.978;8.982;2023-03-14T06:52:04;9.14;89.30
71047;SHT31;58703;48.978;8.982;2023-03-14T06:54:30;9.21;88.90
71047;SHT31;58703;48.978;8.982;2023-03-14T06:56:56;9.59;86.85
71047;SHT31;58703;48.978;8.982;2023-03-14T06:59:24;10.36;87.41
71047;SHT31;58703;48.978;8.982;2023-03-14T07:01:51;10.92;85.96
71047;SHT31;58703;48.978;8.982;2023-03-14T07:04:17;11.06;83.48
71047;SHT31;58703;48.978;8.982;2023-03-14T07:06:43;11.18;81.24
71047;SHT31;58703;48.978;8.982;2023-03-14T07:09:11;10.98;84.36
71047;SHT31;58703;48.978;8.982;2023-03-14T07:11:37;11.11;83.08
71047;SHT31;58703;48.978;8.982;2023-03-14T07:14:04;11.15;82.37
71047;SHT31;58703;48.978;8.982;2023-03-14T07:16:29;10.88;81.25
71047;SHT31;58703;48.978;8.982;2023-03-14T07:19:00;10.73;81.67
71047;SHT31;58703;48.978;8.982;2023-03-14T07:21:26;10.81;80.58
71047;SHT31;58703;48.978;8.982;2023-03-14T07:23:52;10.88;80.02
71047;SHT31;58703;48.978;8.982;2023-03-14T07:26:18;10.98;79.35
71047;SHT31;58703;48.978;8.982;2023-03-14T07:28:43;10.99;80.02
71047;SHT31;58703;48.978;8.982;2023-03-14T07:31:10;11.01;80.02
71047;SHT31;58703;48.978;8.982;2023-03-14T07:33:36;11.02;79.01
71047;SHT31;58703;48.978;8.982;2023-03-14T07:36:02;11.06;81.00
71047;SHT31;58703;48.978;8.982;2023-03-14T07:38:30;11.19;79.31
71047;SHT31;58703;48.978;8.982;2023-03-14T07:41:00;11.36;79.96
71047;SHT31;58703;48.978;8.982;2023-03-14T07:43:28;11.56;79.64
71047;SHT31;58703;48.978;8.982;2023-03-14T07:45:53;11.90;75.20
71047;SHT31;58703;48.978;8.982;2023-03-14T07:48:21;12.18;74.12
71047;SHT31;58703;48.978;8.982;2023-03-14T07:50:54;12.69;72.55
71047;SHT31;58703;48.978;8.982;2023-03-14T07:53:21;12.75;73.34
71047;SHT31;58703;48.978;8.982;2023-03-14T07:55:48;12.76;72.44
71047;SHT31;58703;48.978;8.982;2023-03-14T07:58:15;12.70;72.08
71047;SHT31;58703;48.978;8.982;2023-03-14T08:00:40;12.49;71.03
71047;SHT31;58703;48.978;8.982;2023-03-14T08:03:07;12.65;73.64
71047;SHT31;58703;48.978;8.982;2023-03-14T08:05:37;12.50;73.30
71047;SHT31;58703;48.978;8.982;2023-03-14T08:08:03;12.29;72.55
71047;SHT31;58703;48.978;8.982;2023-03-14T08:10:31;12.59;72.08
71047;SHT31;58703;48.978;8.982;2023-03-14T08:12:59;12.72;70.99
71047;SHT31;58703;48.978;8.982;2023-03-14T08:15:26;12.85;70.39
71047;SHT31;58703;48.978;8.982;2023-03-14T08:17:53;13.06;70.69
71047;SHT31;58703;48.978;8.982;2023-03-14T08:20:21;12.86;69.23
71047;SHT31;58703;48.978;8.982;2023-03-14T08:22:47;13.03;69.95
71047;SHT31;58703;48.978;8.982;2023-03-14T08:25:14;13.33;69.95
71047;SHT31;58703;48.978;8.982;2023-03-14T08:27:39;13.06;69.67
71047;SHT31;58703;48.978;8.982;2023-03-14T08:30:09;12.82;71.33
71047;SHT31;58703;48.978;8.982;2023-03-14T08:32:37;12.87;71.57
71047;SHT31;58703;48.978;8.982;2023-03-14T08:35:03;12.85;72.82
71047;SHT31;58703;48.978;8.982;2023-03-14T08:37:28;12.76;70.66
71047;SHT31;58703;48.978;8.982;2023-03-14T08:39:55;12.89;71.05
71047;SHT31;58703;48.978;8.982;2023-03-14T08:42:21;12.80;71.39
71047;SHT31;58703;48.978;8.982;2023-03-14T08:44:46;12.56;71.61
71047;SHT31;58703;48.978;8.982;2023-03-14T08:47:12;12.55;72.13
71047;SHT31;58703;48.978;8.982;2023-03-14T08:49:39;12.41;72.80
71047;SHT31;58703;48.978;8.982;2023-03-14T08:52:05;12.34;72.43
71047;SHT31;58703;48.978;8.982;2023-03-14T08:54:31;12.20;72.28
71047;SHT31;58703;48.978;8.982;2023-03-14T08:56:58;12.08;73.14
71047;SHT31;58703;48.978;8.982;2023-03-14T08:59:26;11.70;76.86
71047;SHT31;58703;48.978;8.982;2023-03-14T09:01:53;11.37;78.48
71047;SHT31;58703;48.978;8.982;2023-03-14T09:04:20;11.11;80.09
71047;SHT31;58703;48.978;8.982;2023-03-14T09:06:46;10.93;80.28
71047;SHT31;58703;48.978;8.982;2023-03-14T09:09:11;10.89;80.77
71047;SHT31;58703;48.978;8.982;2023-03-14T09:11:40;10.96;81.59
71047;SHT31;58703;48.978;8.982;2023-03-14T09:14:06;10.92;81.12
71047;SHT31;58703;48.978;8.982;2023-03-14T09:16:33;11.08;80.77
71047;SHT31;58703;48.978;8.982;2023-03-14T09:19:00;11.15;80.01
71047;SHT31;58703;48.978;8.982;2023-03-14T09:21:27;11.19;79.76
71047;SHT31;58703;48.978;8.982;2023-03-14T09:23:53;11.26;81.49
71047;SHT31;58703;48.978;8.982;2023-03-14T09:26:19;11.30;80.07
71047;SHT31;58703;48.978;8.982;2023-03-14T09:28:45;11.40;80.05
71047;SHT31;58703;48.978;8.982;2023-03-14T09:31:12;11.34;80.36
71047;SHT31;58703;48.978;8.982;2023-03-14T09:33:38;11.33;79.80
71047;SHT31;58703;48.978;8.982;2023-03-14T09:36:04;11.29;80.21
71047;SHT31;58703;48.978;8.982;2023-03-14T09:38:31;11.37;79.15
71047;SHT31;58703;48.978;8.982;2023-03-14T09:40:59;11.42;78.52
71047;SHT31;58703;48.978;8.982;2023-03-14T09:43:30;11.47;77.71
71047;SHT31;58703;48.978;8.982;2023-03-14T09:45:58;11.49;78.07
71047;SHT31;58703;48.978;8.982;2023-03-14T09:48:29;11.53;76.90
71047;SHT31;58703;48.978;8.982;2023-03-14T09:50:59;11.69;77.60
71047;SHT31;58703;48.978;8.982;2023-03-14T09:53:40;11.77;75.99
71047;SHT31;58703;48.978;8.982;2023-03-14T09:56:28;11.97;76.76
71047;SHT31;58703;48.978;8.982;2023-03-14T09:58:57;12.01;76.03
71047;SHT31;58703;48.978;8.982;2023-03-14T10:01:33;12.14;75.64
71047;SHT31;58703;48.978;8.982;2023-03-14T10:04:10;12.17;75.81
71047;SHT31;58703;48.978;8.982;2023-03-14T10:06:38;12.20;76.74
71047;SHT31;58703;48.978;8.982;2023-03-14T10:09:04;12.05;76.53
71047;SHT31;58703;48.978;8.982;2023-03-14T10:11:31;11.98;76.72
71047;SHT31;58703;48.978;8.982;2023-03-14T10:14:09;12.07;76.05
71047;SHT31;58703;48.978;8.982;2023-03-14T10:16:41;12.05;76.35
71047;SHT31;58703;48.978;8.982;2023-03-14T10:19:15;12.05;75.59
71047;SHT31;58703;48.978;8.982;2023-03-14T10:21:51;12.13;76.07
71047;SHT31;58703;48.978;8.982;2023-03-14T10:24:21;12.20;75.49
71047;SHT31;58703;48.978;8.982;2023-03-14T10:26:48;12.18;75.42
71047;SHT31;58703;48.978;8.982;2023-03-14T10:29:16;12.15;75.68
71047;SHT31;58703;48.978;8.982;2023-03-14T10:34:16;12.02;76.67
71047;SHT31;58703;48.978;8.982;2023-03-14T10:36:46;11.69;80.04
71047;SHT31;58703;48.978;8.982;2023-03-14T10:42:28;11.16;83.56
71047;SHT31;58703;48.978;8.982;2023-03-14T10:45:21;10.99;83.48
71047;SHT31;58703;48.978;8.982;2023-03-14T10:47:49;10.92;84.12
71047;SHT31;58703;48.978;8.982;2023-03-14T10:50:29;10.89;85.06
71047;SHT31;58703;48.978;8.982;2023-03-14T10:52:56;10.89;85.31
71047;SHT31;58703;48.978;8.982;2023-03-14T10:55:24;11.01;85.16
71047;SHT31;58703;48.978;8.982;2023-03-14T10:57:50;10.91;84.62
71047;SHT31;58703;48.978;8.982;2023-03-14T11:00:19;10.86;86.14
71047;SHT31;58703;48.978;8.982;2023-03-14T11:03:09;10.79;85.56
71047;SHT31;58703;48.978;8.982;2023-03-14T11:05:51;10.79;87.18
71047;SHT31;58703;48.978;8.982;2023-03-14T11:08:43;10.78;86.83
71047;SHT31;58703;48.978;8.982;2023-03-14T11:11:26;10.78;88.15
71047;SHT31;58703;48.978;8.982;2023-03-14T11:14:14;10.86;85.59
71047;SHT31;58703;48.978;8.982;2023-03-14T11:17:00;10.86;84.92
71047;SHT31;58703;48.978;8.982;2023-03-14T11:19:43;10.89;84.23
71047;SHT31;58703;48.978;8.982;2023-03-14T11:22:23;10.86;82.49
71047;SHT31;58703;48.978;8.982;2023-03-14T11:25:26;10.61;85.79
71047;SHT31;58703;48.978;8.982;2023-03-14T11:30:44;10.30;85.95
71047;SHT31;58703;48.978;8.982;2023-03-14T11:33:38;10.45;84.81
71047;SHT31;58703;48.978;8.982;2023-03-14T11:36:07;10.54;83.77
71047;SHT31;58703;48.978;8.982;2023-03-14T11:38:36;10.58;83.24
71047;SHT31;58703;48.978;8.982;2023-03-14T11:41:04;10.57;83.48
71047;SHT31;58703;48.978;8.982;2023-03-14T11:43:39;10.52;84.19
71047;SHT31;58703;48.978;8.982;2023-03-14T11:46:13;10.47;84.57
71047;SHT31;58703;48.978;8.982;2023-03-14T11:51:22;10.41;83.83
71047;SHT31;58703;48.978;8.982;2023-03-14T11:57:15;10.11;87.55
71047;SHT31;58703;48.978;8.982;2023-03-14T12:06:29;10.37;87.90
71047;SHT31;58703;48.978;8.982;2023-03-14T12:08:51;10.33;86.90
71047;SHT31;58703;48.978;8.982;2023-03-14T12:13:55;10.16;87.78
71047;SHT31;58703;48.978;8.982;2023-03-14T12:16:31;9.77;87.81
71047;SHT31;58703;48.978;8.982;2023-03-14T12:19:14;9.66;87.01
71047;SHT31;58703;48.978;8.982;2023-03-14T12:21:50;9.66;87.26
71047;SHT31;58703;48.978;8.982;2023-03-14T12:24:19;9.32;87.81
71047;SHT31;58703;48.978;8.982;2023-03-14T12:26:56;9.46;85.14
71047;SHT31;58703;48.978;8.982;2023-03-14T12:29:23;9.65;83.44
71047;SHT31;58703;48.978;8.982;2023-03-14T12:34:42;8.95;81.27
71047;SHT31;58703;48.978;8.982;2023-03-14T12:37:36;8.78;81.08
71047;SHT31;58703;48.978;8.982;2023-03-14T12:42:56;8.92;80.71
71047;SHT31;58703;48.978;8.982;2023-03-14T12:45:41;8.80;79.17
71047;SHT31;58703;48.978;8.982;2023-03-14T12:48:17;8.81;78.73
71047;SHT31;58703;48.978;8.982;2023-03-14T12:50:54;8.84;77.78
71047;SHT31;58703;48.978;8.982;2023-03-14T12:53:43;8.94;77.40
71047;SHT31;58703;48.978;8.982;2023-03-14T13:02:59;9.96;71.94
71047;SHT31;58703;48.978;8.982;2023-03-14T13:05:11;10.36;70.72
71047;SHT31;58703;48.978;8.982;2023-03-14T13:15:19;9.83;64.26
71047;SHT31;58703;48.978;8.982;2023-03-14T13:17:47;9.76;63.30
71047;SHT31;58703;48.978;8.982;2023-03-14T13:20:22;9.72;62.01
71047;SHT31;58703;48.978;8.982;2023-03-14T13:22:50;9.66;61.63
71047;SHT31;58703;48.978;8.982;2023-03-14T13:25:16;9.60;60.47
71047;SHT31;58703;48.978;8.982;2023-03-14T13:27:48;9.62;60.37
71047;SHT31;58703;48.978;8.982;2023-03-14T13:32:46;9.63;59.24
71047;SHT31;58703;48.978;8.982;2023-03-14T13:35:23;9.79;58.76
71047;SHT31;58703;48.978;8.982;2023-03-14T13:37:59;9.94;58.88
71047;SHT31;58703;48.978;8.982;2023-03-14T13:40:29;9.77;57.29
71047;SHT31;58703;48.978;8.982;2023-03-14T13:43:17;9.65;58.62
71047;SHT31;58703;48.978;8.982;2023-03-14T13:46:12;9.65;60.02
71047;SHT31;58703;48.978;8.982;2023-03-14T13:48:44;9.52;58.38
71047;SHT31;58703;48.978;8.982;2023-03-14T13:51:13;9.52;57.51
71047;SHT31;58703;48.978;8.982;2023-03-14T13:53:47;9.70;57.61
71047;SHT31;58703;48.978;8.982;2023-03-14T13:56:18;9.97;55.74
71047;SHT31;58703;48.978;8.982;2023-03-14T13:58:46;9.79;55.07
71047;SHT31;58703;48.978;8.982;2023-03-14T14:01:21;9.75;54.79
71047;SHT31;58703;48.978;8.982;2023-03-14T14:03:50;9.89;55.34
71047;SHT31;58703;48.978;8.982;2023-03-14T14:06:36;9.96;55.20
71047;SHT31;58703;48.978;8.982;2023-03-14T14:09:11;10.04;55.58
71047;SHT31;58703;48.978;8.982;2023-03-14T14:11:56;9.91;54.99
71047;SHT31;58703;48.978;8.982;2023-03-14T14:14:45;9.87;55.79
71047;SHT31;58703;48.978;8.982;2023-03-14T14:17:18;9.76;56.52
71047;SHT31;58703;48.978;8.982;2023-03-14T14:19:47;9.56;55.61
71047;SHT31;58703;48.978;8.982;2023-03-14T14:22:13;9.29;55.07
71047;SHT31;58703;48.978;8.982;2023-03-14T14:24:40;9.40;56.00
71047;SHT31;58703;48.978;8.982;2023-03-14T14:27:15;9.31;54.69
71047;SHT31;58703;48.978;8.982;2023-03-14T14:29:43;9.35;55.21
71047;SHT31;58703;48.978;8.982;2023-03-14T14:32:15;9.34;55.19
71047;SHT31;58703;48.978;8.982;2023-03-14T14:34:46;9.39;54.90
71047;SHT31;58703;48.978;8.982;2023-03-14T14:37:21;9.77;55.56
71047;SHT31;58703;48.978;8.982;2023-03-14T14:39:49;9.77;53.87
71047;SHT31;58703;48.978;8.982;2023-03-14T14:42:17;10.44;52.41
71047;SHT31;58703;48.978;8.982;2023-03-14T14:44:44;10.42;53.68
71047;SHT31;58703;48.978;8.982;2023-03-14T14:47:14;10.67;52.03
71047;SHT31;58703;48.978;8.982;2023-03-14T14:49:41;11.12;51.74
71047;SHT31;58703;48.978;8.982;2023-03-14T14:52:12;12.05;50.44
71047;SHT31;58703;48.978;8.982;2023-03-14T14:54:44;12.14;50.03
71047;SHT31;58703;48.978;8.982;2023-03-14T14:57:28;12.04;51.14
71047;SHT31;58703;48.978;8.982;2023-03-14T15:00:00;11.52;52.02
71047;SHT31;58703;48.978;8.982;2023-03-14T15:02:30;12.04;50.65
71047;SHT31;58703;48.978;8.982;2023-03-14T15:04:56;11.05;50.92
71047;SHT31;58703;48.978;8.982;2023-03-14T15:07:23;10.14;54.28
71047;SHT31;58703;48.978;8.982;2023-03-14T15:09:48;9.77;54.32
71047;SHT31;58703;48.978;8.982;2023-03-14T15:12:14;9.89;54.19
71047;SHT31;58703;48.978;8.982;2023-03-14T15:14:41;11.36;50.90
71047;SHT31;58703;48.978;8.982;2023-03-14T15:17:10;10.58;54.04
71047;SHT31;58703;48.978;8.982;2023-03-14T15:19:36;10.01;55.06
71047;SHT31;58703;48.978;8.982;2023-03-14T15:22:05;9.66;54.58
71047;SHT31;58703;48.978;8.982;2023-03-14T15:24:37;9.75;54.13
71047;SHT31;58703;48.978;8.982;2023-03-14T15:27:03;9.36;54.70
71047;SHT31;58703;48.978;8.982;2023-03-14T15:29:28;9.28;56.13
71047;SHT31;58703;48.978;8.982;2023-03-14T15:31:54;9.22;55.79
71047;SHT31;58703;48.978;8.982;2023-03-14T15:34:19;9.28;56.19
71047;SHT31;58703;48.978;8.982;2023-03-14T15:36:45;9.22;56.84
71047;SHT31;58703;48.978;8.982;2023-03-14T15:39:10;10.50;52.89
71047;SHT31;58703;48.978;8.982;2023-03-14T15:41:40;11.08;52.41
71047;SHT31;58703;48.978;8.982;2023-03-14T15:44:08;10.06;54.66
71047;SHT31;58703;48.978;8.982;2023-03-14T15:46:34;9.39;56.28
71047;SHT31;58703;48.978;8.982;2023-03-14T15:48:59;9.10;56.76
71047;SHT31;58703;48.978;8.982;2023-03-14T15:51:25;9.21;57.78
71047;SHT31;58703;48.978;8.982;2023-03-14T15:53:50;9.00;58.35
71047;SHT31;58703;48.978;8.982;2023-03-14T15:56:19;8.87;59.08
71047;SHT31;58703;48.978;8.982;2023-03-14T15:58:46;8.85;60.18
71047;SHT31;58703;48.978;8.982;2023-03-14T16:01:14;8.75;59.84
71047;SHT31;58703;48.978;8.982;2023-03-14T16:03:41;8.84;60.31
71047;SHT31;58703;48.978;8.982;2023-03-14T16:06:10;8.71;60.29
71047;SHT31;58703;48.978;8.982;2023-03-14T16:08:37;8.60;61.90
71047;SHT31;58703;48.978;8.982;2023-03-14T16:11:04;8.63;61.44
71047;SHT31;58703;48.978;8.982;2023-03-14T16:13:32;8.57;62.25
71047;SHT31;58703;48.978;8.982;2023-03-14T16:15:59;8.52;61.77
71047;SHT31;58703;48.978;8.982;2023-03-14T16:18:29;8.61;61.07
71047;SHT31;58703;48.978;8.982;2023-03-14T16:20:58;8.57;62.00
71047;SHT31;58703;48.978;8.982;2023-03-14T16:23:24;8.63;61.51
71047;SHT31;58703;48.978;8.982;2023-03-14T16:25:52;8.53;63.32
71047;SHT31;58703;48.978;8.982;2023-03-14T16:28:19;8.56;63.11
71047;SHT31;58703;48.978;8.982;2023-03-14T16:30:44;8.49;63.92
71047;SHT31;58703;48.978;8.982;2023-03-14T16:33:13;8.47;63.58
71047;SHT31;58703;48.978;8.982;2023-03-14T16:35:39;8.40;64.36
71047;SHT31;58703;48.978;8.982;2023-03-14T16:38:05;8.40;64.31
71047;SHT31;58703;48.978;8.982;2023-03-14T16:40:32;8.26;66.31
71047;SHT31;58703;48.978;8.982;2023-03-14T16:42:58;8.19;66.70
71047;SHT31;58703;48.978;8.982;2023-03-14T16:45:23;8.14;66.52